sensor_id;sensor_type;location;lat;lon;timestamp;pressure;altitude;pressure_sealevel;temperature;humidity
66627;BME280;53498;50.422;14.912;2023-04-22T00:00:03;98882.56;;;9.16;80.62
66627;BME280;53498;50.422;14.912;2023-04-22T00:02:29;98877.34;;;9.13;81.92
66627;BME280;53498;50.422;14.912;2023-04-22T00:04:55;98881.66;;;9.08;82.17
66627;BME280;53498;50.422;14.912;2023-04-22T00:07:21;98881.66;;;9.03;82.66
66627;BME280;53498;50.422;14.912;2023-04-22T00:09:48;98879.91;;;8.97;83.28
66627;BME280;53498;50.422;14.912;2023-04-22T00:12:13;98872.94;;;8.89;81.53
66627;BME280;53498;50.422;14.912;2023-04-22T00:14:39;98872.94;;;8.84;82.04
66627;BME280;53498;50.422;14.912;2023-04-22T00:17:04;98872.06;;;8.82;81.70
66627;BME280;53498;50.422;14.912;2023-04-22T00:19:32;98877.25;;;8.87;82.37
66627;BME280;53498;50.422;14.912;2023-04-22T00:21:57;98877.25;;;8.87;82.64
66627;BME280;53498;50.422;14.912;2023-04-22T00:24:23;98875.53;;;8.81;84.00
66627;BME280;53498;50.422;14.912;2023-04-22T00:26:49;98866.84;;;8.80;84.56
66627;BME280;53498;50.422;14.912;2023-04-22T00:29:14;98870.31;;;8.72;84.30
66627;BME280;53498;50.422;14.912;2023-04-22T00:31:40;98864.22;;;8.67;83.05
66627;BME280;53498;50.422;14.912;2023-04-22T00:34:06;98870.22;;;8.58;82.73
66627;BME280;53498;50.422;14.912;2023-04-22T00:36:31;98863.34;;;8.60;83.22
66627;BME280;53498;50.422;14.912;2023-04-22T00:38:57;98865.06;;;8.63;82.92
66627;BME280;53498;50.422;14.912;2023-04-22T00:41:23;98865.91;;;8.58;82.51
66627;BME280;53498;50.422;14.912;2023-04-22T00:43:50;98862.47;;;8.61;84.50
66627;BME280;53498;50.422;14.912;2023-04-22T00:46:16;98860.72;;;8.55;83.87
66627;BME280;53498;50.422;14.912;2023-04-22T00:48:43;98857.25;;;8.50;84.39
66627;BME280;53498;50.422;14.912;2023-04-22T00:51:09;98858.97;;;8.50;84.56
66627;BME280;53498;50.422;14.912;2023-04-22T00:53:35;98857.22;;;8.44;85.53
66627;BME280;53498;50.422;14.912;2023-04-22T00:56:00;98854.59;;;8.38;86.04
66627;BME280;53498;50.422;14.912;2023-04-22T00:58:28;98857.09;;;8.32;85.26
66627;BME280;53498;50.422;14.912;2023-04-22T01:00:54;98851.00;;;8.24;84.53
66627;BME280;53498;50.422;14.912;2023-04-22T01:03:20;98847.50;;;8.14;84.95
66627;BME280;53498;50.422;14.912;2023-04-22T01:05:47;98854.38;;;8.09;86.43
66627;BME280;53498;50.422;14.912;2023-04-22T01:08:18;98849.16;;;8.03;85.95
66627;BME280;53498;50.422;14.912;2023-04-22T01:10:43;98845.59;;;7.88;87.16
66627;BME280;53498;50.422;14.912;2023-04-22T01:13:09;98851.63;;;7.89;88.11
66627;BME280;53498;50.422;14.912;2023-04-22T01:15:34;98855.06;;;7.80;87.23
66627;BME280;53498;50.422;14.912;2023-04-22T01:18:01;98855.91;;;7.82;86.94
66627;BME280;53498;50.422;14.912;2023-04-22T01:20:27;98850.72;;;7.82;87.38
66627;BME280;53498;50.422;14.912;2023-04-22T01:22:57;98854.19;;;7.83;88.11
66627;BME280;53498;50.422;14.912;2023-04-22T01:25:27;98851.53;;;7.77;88.22
66627;BME280;53498;50.422;14.912;2023-04-22T01:27:53;98847.22;;;7.76;87.87
66627;BME280;53498;50.422;14.912;2023-04-22T01:30:19;98856.69;;;7.71;88.26
66627;BME280;53498;50.422;14.912;2023-04-22T01:32:45;98854.91;;;7.62;87.51
66627;BME280;53498;50.422;14.912;2023-04-22T01:35:11;98855.72;;;7.58;88.11
66627;BME280;53498;50.422;14.912;2023-04-22T01:37:37;98857.53;;;7.70;88.63
66627;BME280;53498;50.422;14.912;2023-04-22T01:40:03;98854.13;;;7.72;88.69
66627;BME280;53498;50.422;14.912;2023-04-22T01:42:29;98848.06;;;7.72;88.62
66627;BME280;53498;50.422;14.912;2023-04-22T01:44:55;98854.94;;;7.70;88.73
66627;BME280;53498;50.422;14.912;2023-04-22T01:47:21;98846.28;;;7.64;88.88
66627;BME280;53498;50.422;14.912;2023-04-22T01:49:46;98843.66;;;7.58;89.26
66627;BME280;53498;50.422;14.912;2023-04-22T01:52:12;98846.22;;;7.55;89.87
66627;BME280;53498;50.422;14.912;2023-04-22T01:54:38;98849.63;;;7.51;90.16
66627;BME280;53498;50.422;14.912;2023-04-22T01:57:10;98854.72;;;7.45;90.01
66627;BME280;53498;50.422;14.912;2023-04-22T01:59:38;98847.78;;;7.38;89.39
66627;BME280;53498;50.422;14.912;2023-04-22T02:02:04;98840.88;;;7.37;89.42
66627;BME280;53498;50.422;14.912;2023-04-22T02:04:29;98841.69;;;7.31;89.53
66627;BME280;53498;50.422;14.912;2023-04-22T02:06:55;98838.22;;;7.31;89.95
66627;BME280;53498;50.422;14.912;2023-04-22T02:09:20;98839.97;;;7.32;89.52
66627;BME280;53498;50.422;14.912;2023-04-22T02:11:46;98836.53;;;7.34;90.39
66627;BME280;53498;50.422;14.912;2023-04-22T02:14:12;98833.91;;;7.33;90.70
66627;BME280;53498;50.422;14.912;2023-04-22T02:16:40;98838.22;;;7.28;90.27
66627;BME280;53498;50.422;14.912;2023-04-22T02:19:05;98839.94;;;7.29;90.55
66627;BME280;53498;50.422;14.912;2023-04-22T02:21:31;98839.97;;;7.30;90.52
66627;BME280;53498;50.422;14.912;2023-04-22T02:23:57;98836.47;;;7.30;91.17
66627;BME280;53498;50.422;14.912;2023-04-22T02:26:23;98823.44;;;7.21;90.83
66627;BME280;53498;50.422;14.912;2023-04-22T02:28:50;98829.53;;;7.23;90.55
66627;BME280;53498;50.422;14.912;2023-04-22T02:31:16;98834.69;;;7.21;89.91
66627;BME280;53498;50.422;14.912;2023-04-22T02:33:42;98832.13;;;7.26;91.36
66627;BME280;53498;50.422;14.912;2023-04-22T02:36:07;98830.41;;;7.25;90.84
66627;BME280;53498;50.422;14.912;2023-04-22T02:38:33;98826.09;;;7.25;91.49
66627;BME280;53498;50.422;14.912;2023-04-22T02:40:59;98833.78;;;7.17;92.26
66627;BME280;53498;50.422;14.912;2023-04-22T02:43:24;98827.66;;;7.08;92.31
66627;BME280;53498;50.422;14.912;2023-04-22T02:45:50;98827.66;;;7.08;91.96
66627;BME280;53498;50.422;14.912;2023-04-22T02:48:15;98825.81;;;6.96;91.19
66627;BME280;53498;50.422;14.912;2023-04-22T02:50:41;98823.16;;;6.91;91.04
66627;BME280;53498;50.422;14.912;2023-04-22T02:53:07;98825.59;;;6.76;91.35
66627;BME280;53498;50.422;14.912;2023-04-22T02:55:33;98816.13;;;6.80;91.10
66627;BME280;53498;50.422;14.912;2023-04-22T02:57:58;98821.41;;;6.89;91.32
66627;BME280;53498;50.422;14.912;2023-04-22T03:00:24;98823.25;;;6.96;91.80
66627;BME280;53498;50.422;14.912;2023-04-22T03:02:50;98821.50;;;6.98;91.77
66627;BME280;53498;50.422;14.912;2023-04-22T03:05:16;98819.78;;;6.97;90.88
66627;BME280;53498;50.422;14.912;2023-04-22T03:07:41;98817.97;;;6.87;92.04
66627;BME280;53498;50.422;14.912;2023-04-22T03:10:08;98818.75;;;6.83;92.64
66627;BME280;53498;50.422;14.912;2023-04-22T03:12:34;98812.66;;;6.76;93.94
66627;BME280;53498;50.422;14.912;2023-04-22T03:14:59;98818.69;;;6.75;92.79
66627;BME280;53498;50.422;14.912;2023-04-22T03:17:25;98812.69;;;6.78;93.56
66627;BME280;53498;50.422;14.912;2023-04-22T03:19:52;98816.09;;;6.75;92.15
66627;BME280;53498;50.422;14.912;2023-04-22T03:22:17;98815.25;;;6.76;92.27
66627;BME280;53498;50.422;14.912;2023-04-22T03:24:43;98817.88;;;6.78;91.85
66627;BME280;53498;50.422;14.912;2023-04-22T03:27:09;98822.94;;;6.70;92.84
66627;BME280;53498;50.422;14.912;2023-04-22T03:29:35;98821.16;;;6.67;92.40
66627;BME280;53498;50.422;14.912;2023-04-22T03:32:01;98818.59;;;6.64;91.75
66627;BME280;53498;50.422;14.912;2023-04-22T03:34:26;98818.50;;;6.58;91.29
66627;BME280;53498;50.422;14.912;2023-04-22T03:36:52;98818.59;;;6.64;91.93
66627;BME280;53498;50.422;14.912;2023-04-22T03:39:17;98818.47;;;6.57;93.87
66627;BME280;53498;50.422;14.912;2023-04-22T03:41:43;98814.09;;;6.51;92.42
66627;BME280;53498;50.422;14.912;2023-04-22T03:44:09;98817.50;;;6.48;92.71
66627;BME280;53498;50.422;14.912;2023-04-22T03:46:34;98820.13;;;6.52;93.18
66627;BME280;53498;50.422;14.912;2023-04-22T03:49:00;98819.22;;;6.46;93.52
66627;BME280;53498;50.422;14.912;2023-04-22T03:51:26;98818.28;;;6.41;92.35
66627;BME280;53498;50.422;14.912;2023-04-22T03:53:51;98823.44;;;6.41;93.03
66627;BME280;53498;50.422;14.912;2023-04-22T03:56:17;98823.41;;;6.38;94.52
66627;BME280;53498;50.422;14.912;2023-04-22T03:58:42;98826.00;;;6.37;94.32
66627;BME280;53498;50.422;14.912;2023-04-22T04:01:08;98826.03;;;6.40;94.48
66627;BME280;53498;50.422;14.912;2023-04-22T04:03:33;98822.63;;;6.44;92.92
66627;BME280;53498;50.422;14.912;2023-04-22T04:05:59;98816.63;;;6.46;92.97
66627;BME280;53498;50.422;14.912;2023-04-22T04:08:25;98819.25;;;6.51;93.68
66627;BME280;53498;50.422;14.912;2023-04-22T04:10:50;98814.91;;;6.48;94.47
66627;BME280;53498;50.422;14.912;2023-04-22T04:13:16;98819.22;;;6.46;95.04
66627;BME280;53498;50.422;14.912;2023-04-22T04:15:42;98817.41;;;6.41;93.39
66627;BME280;53498;50.422;14.912;2023-04-22T04:18:07;98820.94;;;6.46;93.72
66627;BME280;53498;50.422;14.912;2023-04-22T04:20:34;98818.38;;;6.47;93.66
66627;BME280;53498;50.422;14.912;2023-04-22T04:23:00;98808.88;;;6.48;94.80
66627;BME280;53498;50.422;14.912;2023-04-22T04:25:25;98819.34;;;6.57;94.33
66627;BME280;53498;50.422;14.912;2023-04-22T04:27:51;98814.16;;;6.57;94.09
66627;BME280;53498;50.422;14.912;2023-04-22T04:30:17;98813.41;;;6.66;94.19
66627;BME280;53498;50.422;14.912;2023-04-22T04:32:42;98812.69;;;6.78;93.52
66627;BME280;53498;50.422;14.912;2023-04-22T04:35:10;98812.00;;;6.94;92.83
66627;BME280;53498;50.422;14.912;2023-04-22T04:37:41;98808.84;;;7.26;91.90
66627;BME280;53498;50.422;14.912;2023-04-22T04:40:07;98807.19;;;7.32;89.73
66627;BME280;53498;50.422;14.912;2023-04-22T04:42:34;98808.44;;;7.82;87.85
66627;BME280;53498;50.422;14.912;2023-04-22T04:45:03;98822.66;;;8.51;84.50
66627;BME280;53498;50.422;14.912;2023-04-22T04:47:29;98814.19;;;9.08;81.17
66627;BME280;53498;50.422;14.912;2023-04-22T04:49:59;98820.28;;;9.36;78.43
66627;BME280;53498;50.422;14.912;2023-04-22T04:52:24;98815.09;;;9.57;77.58
66627;BME280;53498;50.422;14.912;2023-04-22T04:54:50;98815.81;;;10.57;73.32
66627;BME280;53498;50.422;14.912;2023-04-22T04:57:15;98821.75;;;10.85;71.42
66627;BME280;53498;50.422;14.912;2023-04-22T04:59:41;98817.81;;;11.55;68.12
66627;BME280;53498;50.422;14.912;2023-04-22T05:02:06;98810.50;;;12.00;64.24
66627;BME280;53498;50.422;14.912;2023-04-22T05:04:32;98822.16;;;11.55;64.67
66627;BME280;53498;50.422;14.912;2023-04-22T05:06:58;98828.66;;;10.86;68.07
66627;BME280;53498;50.422;14.912;2023-04-22T05:09:23;98817.56;;;10.43;71.56
66627;BME280;53498;50.422;14.912;2023-04-22T05:11:49;98818.50;;;10.25;73.02
66627;BME280;53498;50.422;14.912;2023-04-22T05:14:14;98821.13;;;9.98;74.83
66627;BME280;53498;50.422;14.912;2023-04-22T05:16:40;98822.00;;;9.43;77.26
66627;BME280;53498;50.422;14.912;2023-04-22T05:19:05;98834.06;;;8.93;77.35
66627;BME280;53498;50.422;14.912;2023-04-22T05:21:31;98837.59;;;9.23;78.72
66627;BME280;53498;50.422;14.912;2023-04-22T05:23:57;98826.38;;;9.50;77.43
66627;BME280;53498;50.422;14.912;2023-04-22T05:26:22;98834.13;;;9.16;77.48
66627;BME280;53498;50.422;14.912;2023-04-22T05:28:48;98827.22;;;9.35;77.48
66627;BME280;53498;50.422;14.912;2023-04-22T05:31:13;98823.75;;;9.81;75.61
66627;BME280;53498;50.422;14.912;2023-04-22T05:33:39;98822.00;;;9.92;72.74
66627;BME280;53498;50.422;14.912;2023-04-22T05:36:05;98828.06;;;10.05;71.39
66627;BME280;53498;50.422;14.912;2023-04-22T05:38:30;98829.75;;;10.21;72.59
66627;BME280;53498;50.422;14.912;2023-04-22T05:40:56;98821.97;;;10.27;72.92
66627;BME280;53498;50.422;14.912;2023-04-22T05:43:22;98825.38;;;10.45;71.54
66627;BME280;53498;50.422;14.912;2023-04-22T05:45:47;98822.72;;;10.55;72.80
66627;BME280;53498;50.422;14.912;2023-04-22T05:48:13;98822.75;;;10.57;73.10
66627;BME280;53498;50.422;14.912;2023-04-22T05:50:39;98831.44;;;10.51;71.88
66627;BME280;53498;50.422;14.912;2023-04-22T05:53:04;98833.09;;;10.68;70.23
66627;BME280;53498;50.422;14.912;2023-04-22T05:55:30;98826.09;;;10.82;70.08
66627;BME280;53498;50.422;14.912;2023-04-22T05:57:56;98834.75;;;10.81;70.39
66627;BME280;53498;50.422;14.912;2023-04-22T06:00:21;98830.28;;;11.09;69.98
66627;BME280;53498;50.422;14.912;2023-04-22T06:02:47;98832.72;;;11.33;67.91
66627;BME280;53498;50.422;14.912;2023-04-22T06:05:12;98834.50;;;11.31;68.25
66627;BME280;53498;50.422;14.912;2023-04-22T06:07:38;98831.75;;;11.47;68.30
66627;BME280;53498;50.422;14.912;2023-04-22T06:10:05;98844.69;;;11.61;66.43
66627;BME280;53498;50.422;14.912;2023-04-22T06:12:32;98832.34;;;11.82;64.84
66627;BME280;53498;50.422;14.912;2023-04-22T06:14:58;98829.75;;;11.86;62.84
66627;BME280;53498;50.422;14.912;2023-04-22T06:17:23;98830.44;;;12.03;62.87
66627;BME280;53498;50.422;14.912;2023-04-22T06:19:49;98832.91;;;12.18;62.27
66627;BME280;53498;50.422;14.912;2023-04-22T06:22:14;98826.03;;;12.11;61.61
66627;BME280;53498;50.422;14.912;2023-04-22T06:24:40;98830.09;;;12.37;62.11
66627;BME280;53498;50.422;14.912;2023-04-22T06:27:05;98828.09;;;12.60;61.50
66627;BME280;53498;50.422;14.912;2023-04-22T06:29:33;98825.38;;;12.69;59.60
66627;BME280;53498;50.422;14.912;2023-04-22T06:31:59;98826.84;;;12.90;60.08
66627;BME280;53498;50.422;14.912;2023-04-22T06:34:24;98827.53;;;13.05;59.84
66627;BME280;53498;50.422;14.912;2023-04-22T06:36:50;98826.19;;;13.38;56.62
66627;BME280;53498;50.422;14.912;2023-04-22T06:39:16;98828.00;;;12.69;56.01
66627;BME280;53498;50.422;14.912;2023-04-22T06:41:41;98829.88;;;13.26;57.64
66627;BME280;53498;50.422;14.912;2023-04-22T06:44:09;98829.91;;;13.20;54.42
66627;BME280;53498;50.422;14.912;2023-04-22T06:46:34;98824.06;;;13.04;55.39
66627;BME280;53498;50.422;14.912;2023-04-22T06:49:00;98826.75;;;13.57;57.04
66627;BME280;53498;50.422;14.912;2023-04-22T06:51:25;98824.69;;;13.77;51.86
66627;BME280;53498;50.422;14.912;2023-04-22T06:53:51;98822.03;;;13.80;51.59
66627;BME280;53498;50.422;14.912;2023-04-22T06:56:16;98821.72;;;13.99;51.49
66627;BME280;53498;50.422;14.912;2023-04-22T06:58:42;98822.94;;;13.78;52.16
66627;BME280;53498;50.422;14.912;2023-04-22T07:01:08;98823.63;;;14.37;51.34
66627;BME280;53498;50.422;14.912;2023-04-22T07:03:33;98818.28;;;13.95;50.45
66627;BME280;53498;50.422;14.912;2023-04-22T07:05:59;98822.78;;;14.35;50.88
66627;BME280;53498;50.422;14.912;2023-04-22T07:08:25;98817.38;;;14.44;50.64
66627;BME280;53498;50.422;14.912;2023-04-22T07:10:50;98819.72;;;14.60;50.35
66627;BME280;53498;50.422;14.912;2023-04-22T07:13:16;98812.19;;;14.86;49.89
66627;BME280;53498;50.422;14.912;2023-04-22T07:15:41;98812.44;;;14.74;50.08
66627;BME280;53498;50.422;14.912;2023-04-22T07:18:07;98813.44;;;15.09;50.51
66627;BME280;53498;50.422;14.912;2023-04-22T07:20:33;98811.66;;;15.11;49.15
66627;BME280;53498;50.422;14.912;2023-04-22T07:22:58;98815.56;;;15.30;50.62
66627;BME280;53498;50.422;14.912;2023-04-22T07:25:24;98811.03;;;14.99;47.68
66627;BME280;53498;50.422;14.912;2023-04-22T07:27:50;98818.44;;;14.79;48.39
66627;BME280;53498;50.422;14.912;2023-04-22T07:30:15;98810.69;;;15.13;49.27
66627;BME280;53498;50.422;14.912;2023-04-22T07:32:41;98814.88;;;15.22;48.28
66627;BME280;53498;50.422;14.912;2023-04-22T07:35:07;98817.50;;;15.22;47.90
66627;BME280;53498;50.422;14.912;2023-04-22T07:37:33;98821.34;;;15.44;47.51
66627;BME280;53498;50.422;14.912;2023-04-22T07:39:58;98812.91;;;15.32;48.48
66627;BME280;53498;50.422;14.912;2023-04-22T07:42:24;98813.69;;;15.74;47.84
66627;BME280;53498;50.422;14.912;2023-04-22T07:44:49;98816.44;;;15.68;47.56
66627;BME280;53498;50.422;14.912;2023-04-22T07:47:15;98812.16;;;16.00;47.91
66627;BME280;53498;50.422;14.912;2023-04-22T07:49:41;98807.72;;;15.66;48.38
66627;BME280;53498;50.422;14.912;2023-04-22T07:52:08;98807.44;;;15.78;47.27
66627;BME280;53498;50.422;14.912;2023-04-22T07:54:33;98806.03;;;15.63;45.84
66627;BME280;53498;50.422;14.912;2023-04-22T07:56:59;98803.84;;;15.82;47.26
66627;BME280;53498;50.422;14.912;2023-04-22T07:59:25;98810.78;;;15.85;46.81
66627;BME280;53498;50.422;14.912;2023-04-22T08:01:51;98809.44;;;15.68;46.83
66627;BME280;53498;50.422;14.912;2023-04-22T08:04:18;98805.09;;;15.66;48.11
66627;BME280;53498;50.422;14.912;2023-04-22T08:06:45;98815.00;;;15.90;46.59
66627;BME280;53498;50.422;14.912;2023-04-22T08:09:10;98804.72;;;15.83;46.77
66627;BME280;53498;50.422;14.912;2023-04-22T08:11:36;98815.53;;;16.03;47.04
66627;BME280;53498;50.422;14.912;2023-04-22T08:14:01;98810.13;;;16.09;46.20
66627;BME280;53498;50.422;14.912;2023-04-22T08:16:27;98811.84;;;15.76;46.59
66627;BME280;53498;50.422;14.912;2023-04-22T08:18:53;98817.44;;;16.31;46.04
66627;BME280;53498;50.422;14.912;2023-04-22T08:21:18;98817.88;;;16.47;43.59
66627;BME280;53498;50.422;14.912;2023-04-22T08:23:44;98808.13;;;16.52;43.63
66627;BME280;53498;50.422;14.912;2023-04-22T08:26:10;98808.72;;;16.93;42.25
66627;BME280;53498;50.422;14.912;2023-04-22T08:28:39;98805.09;;;16.65;41.48
66627;BME280;53498;50.422;14.912;2023-04-22T08:31:06;98806.97;;;16.92;40.38
66627;BME280;53498;50.422;14.912;2023-04-22T08:33:33;98807.84;;;17.20;40.56
66627;BME280;53498;50.422;14.912;2023-04-22T08:35:59;98798.69;;;17.33;40.35
66627;BME280;53498;50.422;14.912;2023-04-22T08:38:25;98802.75;;;17.44;41.05
66627;BME280;53498;50.422;14.912;2023-04-22T08:40:56;98795.13;;;17.36;41.29
66627;BME280;53498;50.422;14.912;2023-04-22T08:43:25;98804.53;;;17.42;40.60
66627;BME280;53498;50.422;14.912;2023-04-22T08:45:52;98803.22;;;17.28;39.85
66627;BME280;53498;50.422;14.912;2023-04-22T08:48:20;98800.78;;;17.50;41.55
66627;BME280;53498;50.422;14.912;2023-04-22T08:50:46;98804.97;;;17.56;40.43
66627;BME280;53498;50.422;14.912;2023-04-22T08:53:13;98796.72;;;17.67;40.25
66627;BME280;53498;50.422;14.912;2023-04-22T08:55:43;98793.94;;;17.71;39.61
66627;BME280;53498;50.422;14.912;2023-04-22T08:58:10;98798.03;;;18.07;38.17
66627;BME280;53498;50.422;14.912;2023-04-22T09:00:39;98784.38;;;18.20;37.92
66627;BME280;53498;50.422;14.912;2023-04-22T09:03:06;98795.72;;;17.97;38.12
66627;BME280;53498;50.422;14.912;2023-04-22T09:05:33;98793.78;;;17.76;38.14
66627;BME280;53498;50.422;14.912;2023-04-22T09:07:59;98794.56;;;17.79;38.53
66627;BME280;53498;50.422;14.912;2023-04-22T09:10:25;98799.03;;;17.77;38.42
66627;BME280;53498;50.422;14.912;2023-04-22T09:12:52;98802.34;;;17.83;37.33
66627;BME280;53498;50.422;14.912;2023-04-22T09:15:18;98792.59;;;18.11;37.78
66627;BME280;53498;50.422;14.912;2023-04-22T09:17:44;98796.13;;;17.58;36.53
66627;BME280;53498;50.422;14.912;2023-04-22T09:20:10;98788.19;;;17.33;37.52
66627;BME280;53498;50.422;14.912;2023-04-22T09:22:45;98795.75;;;17.69;36.95
66627;BME280;53498;50.422;14.912;2023-04-22T09:25:21;98778.16;;;17.98;36.62
66627;BME280;53498;50.422;14.912;2023-04-22T09:27:54;98789.69;;;17.67;35.96
66627;BME280;53498;50.422;14.912;2023-04-22T09:30:25;98778.78;;;17.79;36.48
66627;BME280;53498;50.422;14.912;2023-04-22T09:32:55;98775.06;;;17.87;35.80
66627;BME280;53498;50.422;14.912;2023-04-22T09:35:35;98776.13;;;18.06;36.03
66627;BME280;53498;50.422;14.912;2023-04-22T09:38:03;98770.31;;;18.21;36.09
66627;BME280;53498;50.422;14.912;2023-04-22T09:40:30;98768.09;;;18.58;35.81
66627;BME280;53498;50.422;14.912;2023-04-22T09:42:57;98767.84;;;18.65;35.73
66627;BME280;53498;50.422;14.912;2023-04-22T09:45:36;98762.44;;;18.45;34.45
66627;BME280;53498;50.422;14.912;2023-04-22T09:48:11;98770.69;;;18.59;35.18
66627;BME280;53498;50.422;14.912;2023-04-22T09:50:40;98756.84;;;18.06;36.93
66627;BME280;53498;50.422;14.912;2023-04-22T09:53:09;98756.66;;;18.35;35.84
66627;BME280;53498;50.422;14.912;2023-04-22T09:55:40;98753.22;;;18.57;34.62
66627;BME280;53498;50.422;14.912;2023-04-22T09:58:09;98756.31;;;18.91;36.22
66627;BME280;53498;50.422;14.912;2023-04-22T10:01:05;98748.56;;;18.63;34.44
66627;BME280;53498;50.422;14.912;2023-04-22T10:03:31;98741.91;;;18.78;34.88
66627;BME280;53498;50.422;14.912;2023-04-22T10:05:57;98748.50;;;18.90;35.29
66627;BME280;53498;50.422;14.912;2023-04-22T10:08:23;98741.16;;;18.75;34.14
66627;BME280;53498;50.422;14.912;2023-04-22T10:10:49;98739.94;;;18.83;35.06
66627;BME280;53498;50.422;14.912;2023-04-22T10:13:15;98735.03;;;18.74;34.33
66627;BME280;53498;50.422;14.912;2023-04-22T10:15:50;98742.03;;;18.97;34.08
66627;BME280;53498;50.422;14.912;2023-04-22T10:18:27;98729.78;;;18.74;33.79
66627;BME280;53498;50.422;14.912;2023-04-22T10:20:56;98737.50;;;18.55;35.57
66627;BME280;53498;50.422;14.912;2023-04-22T10:23:23;98722.53;;;19.01;34.44
66627;BME280;53498;50.422;14.912;2023-04-22T10:25:52;98734.81;;;19.02;33.50
66627;BME280;53498;50.422;14.912;2023-04-22T10:28:20;98722.53;;;19.01;32.86
66627;BME280;53498;50.422;14.912;2023-04-22T10:30:47;98729.16;;;19.11;31.42
66627;BME280;53498;50.422;14.912;2023-04-22T10:38:39;98726.34;;;18.94;31.99
66627;BME280;53498;50.422;14.912;2023-04-22T10:41:05;98724.44;;;18.98;31.84
66627;BME280;53498;50.422;14.912;2023-04-22T10:43:45;98728.25;;;19.12;31.99
66627;BME280;53498;50.422;14.912;2023-04-22T10:49:20;98712.00;;;19.01;31.85
66627;BME280;53498;50.422;14.912;2023-04-22T10:51:58;98718.78;;;19.29;31.81
66627;BME280;53498;50.422;14.912;2023-04-22T10:57:19;98708.59;;;18.99;31.20
66627;BME280;53498;50.422;14.912;2023-04-22T10:59:54;98707.28;;;18.87;31.59
66627;BME280;53498;50.422;14.912;2023-04-22T11:02:21;98708.56;;;18.77;32.22
66627;BME280;53498;50.422;14.912;2023-04-22T11:04:47;98715.56;;;19.00;30.86
66627;BME280;53498;50.422;14.912;2023-04-22T11:09:59;98689.63;;;19.54;32.48
66627;BME280;53498;50.422;14.912;2023-04-22T11:17:32;98690.72;;;19.28;32.24
66627;BME280;53498;50.422;14.912;2023-04-22T11:19:59;98687.09;;;18.86;32.65
66627;BME280;53498;50.422;14.912;2023-04-22T11:22:25;98684.25;;;19.35;33.47
66627;BME280;53498;50.422;14.912;2023-04-22T11:24:58;98682.81;;;19.28;32.09
66627;BME280;53498;50.422;14.912;2023-04-22T11:27:25;98677.03;;;19.40;32.43
66627;BME280;53498;50.422;14.912;2023-04-22T11:32:26;98687.63;;;19.38;32.66
66627;BME280;53498;50.422;14.912;2023-04-22T11:34:52;98685.59;;;19.03;32.98
66627;BME280;53498;50.422;14.912;2023-04-22T11:37:18;98676.03;;;18.78;32.28
66627;BME280;53498;50.422;14.912;2023-04-22T11:39:44;98673.28;;;18.81;33.30
66627;BME280;53498;50.422;14.912;2023-04-22T11:42:11;98671.06;;;18.47;32.89
66627;BME280;53498;50.422;14.912;2023-04-22T11:44:38;98658.44;;;18.79;34.61
66627;BME280;53498;50.422;14.912;2023-04-22T11:47:04;98662.72;;;19.03;32.58
66627;BME280;53498;50.422;14.912;2023-04-22T11:49:29;98661.84;;;19.25;32.73
66627;BME280;53498;50.422;14.912;2023-04-22T11:51:57;98667.78;;;19.08;33.38
66627;BME280;53498;50.422;14.912;2023-04-22T11:54:34;98659.13;;;19.26;33.67
66627;BME280;53498;50.422;14.912;2023-04-22T11:57:06;98659.31;;;19.22;34.58
66627;BME280;53498;50.422;14.912;2023-04-22T11:59:33;98655.28;;;19.33;34.68
66627;BME280;53498;50.422;14.912;2023-04-22T12:01:59;98662.09;;;19.18;33.08
66627;BME280;53498;50.422;14.912;2023-04-22T12:04:24;98661.63;;;19.09;32.87
66627;BME280;53498;50.422;14.912;2023-04-22T12:07:03;98662.78;;;19.44;33.50
66627;BME280;53498;50.422;14.912;2023-04-22T12:09:29;98662.16;;;19.58;32.66
66627;BME280;53498;50.422;14.912;2023-04-22T12:11:55;98664.72;;;19.39;33.10
66627;BME280;53498;50.422;14.912;2023-04-22T12:14:27;98662.13;;;19.17;33.21
66627;BME280;53498;50.422;14.912;2023-04-22T12:16:56;98661.66;;;19.07;32.63
66627;BME280;53498;50.422;14.912;2023-04-22T12:19:25;98653.50;;;19.13;33.46
66627;BME280;53498;50.422;14.912;2023-04-22T12:21:55;98655.59;;;19.05;34.85
66627;BME280;53498;50.422;14.912;2023-04-22T12:24:27;98643.50;;;19.22;33.90
66627;BME280;53498;50.422;14.912;2023-04-22T12:26:53;98652.94;;;19.48;34.68
66627;BME280;53498;50.422;14.912;2023-04-22T12:29:26;98644.97;;;19.49;33.03
66627;BME280;53498;50.422;14.912;2023-04-22T12:31:52;98652.41;;;19.39;33.24
66627;BME280;53498;50.422;14.912;2023-04-22T12:34:31;98643.88;;;19.12;32.79
66627;BME280;53498;50.422;14.912;2023-04-22T12:36:57;98646.78;;;19.27;33.21
66627;BME280;53498;50.422;14.912;2023-04-22T12:39:23;98635.13;;;19.12;34.43
66627;BME280;53498;50.422;14.912;2023-04-22T12:41:48;98637.44;;;19.19;33.05
66627;BME280;53498;50.422;14.912;2023-04-22T12:44:15;98623.31;;;19.00;33.48
66627;BME280;53498;50.422;14.912;2023-04-22T12:46:41;98635.00;;;19.35;33.97
66627;BME280;53498;50.422;14.912;2023-04-22T12:49:07;98630.44;;;19.39;34.04
66627;BME280;53498;50.422;14.912;2023-04-22T12:51:33;98626.22;;;19.55;34.10
66627;BME280;53498;50.422;14.912;2023-04-22T12:53:58;98620.63;;;19.63;32.97
66627;BME280;53498;50.422;14.912;2023-04-22T12:56:24;98618.06;;;19.41;33.43
66627;BME280;53498;50.422;14.912;2023-04-22T12:58:50;98615.03;;;19.50;33.82
66627;BME280;53498;50.422;14.912;2023-04-22T13:01:16;98616.50;;;19.37;33.61
66627;BME280;53498;50.422;14.912;2023-04-22T13:03:41;98610.72;;;19.48;34.33
66627;BME280;53498;50.422;14.912;2023-04-22T13:06:07;98607.09;;;19.30;33.44
66627;BME280;53498;50.422;14.912;2023-04-22T13:08:33;98604.16;;;19.37;34.70
66627;BME280;53498;50.422;14.912;2023-04-22T13:10:58;98600.66;;;19.16;33.88
66627;BME280;53498;50.422;14.912;2023-04-22T13:13:24;98597.41;;;19.10;34.11